createdAt,value
2022-09-03T00:17:12.075Z,19.70
2022-09-03T00:20:26.181Z,19.90
2022-09-03T00:23:30.810Z,19.70
2022-09-03T00:26:35.910Z,19.70
2022-09-03T00:29:48.108Z,19.60
2022-09-03T00:33:22.378Z,19.60
2022-09-03T00:36:42.587Z,19.70
2022-09-03T00:39:44.559Z,19.60
2022-09-03T00:43:11.709Z,19.70
2022-09-03T00:46:45.270Z,19.60
2022-09-03T00:50:03.187Z,19.60
2022-09-03T00:53:27.326Z,19.60
2022-09-03T00:56:47.917Z,19.50
2022-09-03T01:00:07.253Z,19.30
2022-09-03T01:03:09.191Z,19.40
2022-09-03T01:06:23.139Z,19.40
2022-09-03T01:09:34.773Z,19.50
2022-09-03T01:12:44.420Z,19.50
2022-09-03T01:16:20.454Z,19.50
2022-09-03T01:19:52.629Z,19.50
2022-09-03T01:23:13.464Z,19.50
2022-09-03T01:26:34.364Z,19.50
2022-09-03T01:29:42.933Z,19.50
2022-09-03T01:32:58.307Z,19.40
2022-09-03T01:36:38.082Z,19.30
2022-09-03T01:39:46.734Z,19.30
2022-09-03T01:43:07.705Z,19.30
2022-09-03T01:46:18.959Z,19.20
2022-09-03T01:49:44.174Z,19.30
2022-09-03T01:57:06.793Z,19.30
2022-09-03T02:00:21.111Z,19.30
2022-09-03T02:03:25.082Z,19.30
2022-09-03T02:06:27.945Z,19.40
2022-09-03T02:09:32.680Z,19.50
2022-09-03T02:12:38.429Z,19.50
2022-09-03T02:15:45.808Z,19.50
2022-09-03T02:18:52.101Z,19.50
2022-09-03T02:21:57.116Z,19.30
2022-09-03T02:24:59.026Z,19.30
2022-09-03T02:28:01.901Z,19.40
2022-09-03T02:31:04.522Z,19.40
2022-09-03T02:34:06.557Z,19.30
2022-09-03T02:37:17.183Z,19.40
2022-09-03T02:40:19.106Z,19.50
2022-09-03T02:43:42.161Z,19.40
2022-09-03T02:46:48.524Z,19.40
2022-09-03T02:49:50.396Z,19.40
2022-09-03T02:52:52.723Z,19.40
2022-09-03T02:56:02.139Z,19.40
2022-09-03T02:59:05.429Z,19.40
2022-09-03T03:02:07.518Z,19.40
2022-09-03T03:05:15.853Z,19.40
2022-09-03T03:08:21.496Z,19.40
2022-09-03T03:11:25.240Z,19.20
2022-09-03T03:14:26.964Z,19.30
2022-09-03T03:17:29.014Z,19.30
2022-09-03T03:20:30.918Z,19.40
2022-09-03T03:23:33.826Z,19.40
2022-09-03T03:26:35.791Z,19.40
2022-09-03T03:29:37.930Z,19.30
2022-09-03T03:32:40.176Z,19.20
2022-09-03T03:35:42.768Z,19.20
2022-09-03T03:38:45.431Z,19.20
2022-09-03T03:41:47.514Z,19.20
2022-09-03T03:44:49.613Z,19.10
2022-09-03T03:47:51.482Z,19.00
2022-09-03T03:50:53.807Z,19.10
2022-09-03T03:53:59.362Z,19.20
2022-09-03T03:57:04.592Z,19.20
2022-09-03T04:00:07.173Z,19.20
2022-09-03T04:03:09.105Z,19.20
2022-09-03T04:06:13.166Z,19.20
2022-09-03T04:09:15.060Z,19.20
2022-09-03T04:12:17.527Z,19.10
2022-09-03T04:15:19.736Z,19.20
2022-09-03T04:18:21.802Z,19.20
2022-09-03T04:21:26.610Z,19.20
2022-09-03T04:24:30.566Z,19.10
2022-09-03T04:27:32.435Z,19.10
2022-09-03T04:30:34.443Z,19.10
2022-09-03T04:33:39.570Z,19.10
2022-09-03T04:36:41.521Z,18.90
2022-09-03T04:39:43.526Z,19.00
2022-09-03T04:42:45.418Z,19.10
2022-09-03T04:45:47.429Z,19.00
2022-09-03T04:48:51.636Z,19.00
2022-09-03T04:51:53.356Z,19.00
2022-09-03T04:54:55.294Z,19.00
2022-09-03T04:57:57.283Z,19.00
2022-09-03T05:00:59.454Z,19.10
2022-09-03T05:04:02.235Z,19.00
2022-09-03T05:07:04.476Z,18.80
2022-09-03T05:10:08.641Z,18.90
2022-09-03T05:13:10.469Z,18.90
2022-09-03T05:16:13.342Z,18.80
2022-09-03T05:19:16.103Z,18.90
2022-09-03T05:22:21.515Z,18.90
2022-09-03T05:25:24.089Z,19.00
2022-09-03T05:28:30.862Z,19.00
2022-09-03T05:31:32.757Z,19.00
2022-09-03T05:34:34.524Z,19.00
2022-09-03T05:37:37.550Z,19.00
2022-09-03T05:40:39.818Z,18.90
2022-09-03T05:43:42.892Z,19.00
2022-09-03T05:46:44.651Z,19.00
2022-09-03T05:49:46.471Z,19.00
2022-09-03T05:52:48.935Z,18.90
2022-09-03T05:55:58.882Z,19.00
2022-09-03T05:59:05.784Z,19.00
2022-09-03T06:02:07.630Z,19.00
2022-09-03T06:05:09.522Z,19.00
2022-09-03T06:08:12.715Z,19.00
2022-09-03T06:11:14.678Z,19.00
2022-09-03T06:14:17.008Z,18.90
2022-09-03T06:17:19.016Z,19.00
2022-09-03T06:20:20.771Z,18.90
2022-09-03T06:23:23.290Z,18.90
2022-09-03T06:26:25.647Z,19.00
2022-09-03T06:29:27.653Z,19.00
2022-09-03T06:32:29.928Z,19.10
2022-09-03T06:35:31.664Z,19.10
2022-09-03T06:38:43.578Z,19.10
2022-09-03T06:41:45.985Z,19.20
2022-09-03T06:44:48.932Z,19.20
2022-09-03T06:47:50.646Z,19.10
2022-09-03T06:51:01.206Z,19.20
2022-09-03T06:54:08.884Z,19.20
2022-09-03T06:57:11.055Z,19.30
2022-09-03T07:00:14.147Z,19.30
2022-09-03T07:03:19.184Z,19.40
2022-09-03T07:06:21.840Z,19.50
2022-09-03T07:09:23.614Z,19.50
2022-09-03T07:12:25.333Z,19.70
2022-09-03T07:15:27.168Z,19.80
2022-09-03T07:18:28.931Z,19.90
2022-09-03T07:21:45.106Z,19.90
2022-09-03T07:24:52.073Z,20.00
2022-09-03T07:27:54.310Z,20.00
2022-09-03T07:31:05.973Z,20.10
2022-09-03T07:34:10.574Z,20.10
2022-09-03T07:37:12.574Z,20.10
2022-09-03T07:40:15.933Z,20.30
2022-09-03T07:43:19.334Z,20.40
2022-09-03T07:46:23.826Z,20.50
2022-09-03T07:49:25.750Z,20.60
2022-09-03T07:52:28.060Z,20.60
2022-09-03T07:55:31.023Z,20.70
2022-09-03T07:58:34.276Z,20.80
2022-09-03T08:01:38.482Z,20.90
2022-09-03T08:04:41.280Z,21.10
2022-09-03T08:07:42.990Z,21.20
2022-09-03T08:10:45.022Z,21.30
2022-09-03T08:13:48.957Z,21.40
2022-09-03T08:16:50.999Z,21.50
2022-09-03T08:19:52.692Z,21.60
2022-09-03T08:23:01.797Z,21.70
2022-09-03T08:26:04.025Z,21.70
2022-09-03T08:29:06.622Z,21.80
2022-09-03T08:32:08.571Z,21.90
2022-09-03T08:35:10.438Z,22.00
2022-09-03T08:38:12.907Z,22.00
2022-09-03T08:41:31.347Z,22.00
2022-09-03T08:44:41.596Z,22.10
2022-09-03T08:47:54.468Z,22.00
2022-09-03T08:51:00.148Z,22.00
2022-09-03T08:54:02.803Z,22.00
2022-09-03T08:57:08.334Z,22.00
2022-09-03T09:00:10.699Z,22.00
2022-09-03T09:03:34.613Z,22.10
2022-09-03T09:06:42.115Z,22.20
2022-09-03T09:09:59.647Z,22.30
2022-09-03T09:13:50.051Z,22.40
2022-09-03T09:17:16.361Z,22.40
2022-09-03T09:20:29.107Z,22.50
2022-09-03T09:23:58.890Z,22.60
2022-09-03T09:27:04.411Z,22.70
2022-09-03T09:30:06.805Z,22.80
2022-09-03T09:33:08.683Z,22.90
2022-09-03T09:36:15.507Z,22.90
2022-09-03T09:39:17.698Z,22.90
2022-09-03T09:42:22.482Z,23.00
2022-09-03T09:45:24.795Z,23.10
2022-09-03T09:48:31.567Z,23.20
2022-09-03T09:51:33.531Z,23.20
2022-09-03T09:54:35.381Z,23.30
2022-09-03T09:57:38.750Z,23.30
2022-09-03T10:00:42.707Z,23.30
2022-09-03T10:04:00.764Z,23.40
2022-09-03T10:07:29.503Z,23.50
2022-09-03T10:10:46.471Z,23.60
2022-09-03T10:13:48.682Z,23.60
2022-09-03T10:16:59.670Z,23.50
2022-09-03T10:20:32.125Z,23.60
2022-09-03T10:24:17.898Z,23.60
2022-09-03T10:27:20.226Z,23.70
2022-09-03T10:30:22.988Z,23.70
2022-09-03T10:33:34.436Z,23.70
2022-09-03T10:37:17.079Z,23.70
2022-09-03T10:40:34.033Z,23.60
2022-09-03T10:43:38.330Z,23.60
2022-09-03T10:47:19.767Z,23.60
2022-09-03T10:50:28.984Z,23.60
2022-09-03T10:53:59.769Z,23.70
2022-09-03T10:57:31.629Z,23.90
2022-09-03T11:00:39.802Z,24.00
2022-09-03T11:03:45.605Z,24.00
2022-09-03T11:06:53.656Z,23.90
2022-09-03T11:10:05.966Z,23.90
2022-09-03T11:13:10.898Z,23.90
2022-09-03T11:16:18.350Z,24.00
2022-09-03T11:19:28.474Z,24.00
2022-09-03T11:22:31.443Z,24.00
2022-09-03T11:25:37.149Z,24.00
2022-09-03T11:28:45.513Z,24.10
2022-09-03T11:32:01.727Z,24.10
2022-09-03T11:35:17.923Z,24.10
2022-09-03T11:38:24.854Z,24.30
2022-09-03T11:41:38.171Z,24.50
2022-09-03T11:44:47.983Z,24.50
2022-09-03T11:47:54.967Z,24.60
2022-09-03T11:50:57.302Z,24.50
2022-09-03T11:54:16.200Z,24.70
2022-09-03T11:57:30.139Z,24.80
2022-09-03T12:00:31.937Z,24.90
2022-09-03T12:04:03.364Z,24.80
2022-09-03T12:07:23.918Z,24.70
2022-09-03T12:10:44.303Z,24.50
2022-09-03T12:14:02.039Z,24.50
2022-09-03T12:17:35.469Z,24.40
2022-09-03T12:20:37.485Z,24.40
2022-09-03T12:23:50.734Z,24.30
2022-09-03T12:26:52.696Z,24.30
2022-09-03T12:30:02.118Z,24.40
2022-09-03T12:33:10.229Z,24.40
2022-09-03T12:36:14.762Z,24.40
2022-09-03T12:39:17.972Z,24.40
2022-09-03T12:42:26.907Z,24.40
2022-09-03T12:46:09.725Z,24.40
2022-09-03T12:52:33.429Z,24.40
2022-09-03T12:55:49.501Z,24.40
2022-09-03T12:58:59.557Z,24.40
2022-09-03T13:02:12.673Z,24.40
2022-09-03T13:05:20.053Z,24.50
2022-09-03T13:08:25.550Z,24.50
2022-09-03T13:11:29.257Z,24.50
2022-09-03T13:14:43.850Z,24.50
2022-09-03T13:18:13.266Z,24.50
2022-09-03T13:21:42.961Z,24.50
2022-09-03T13:25:10.809Z,24.50
2022-09-03T13:28:40.038Z,24.50
2022-09-03T13:31:50.201Z,24.50
2022-09-03T13:34:59.627Z,24.50
2022-09-03T13:38:20.675Z,24.60
2022-09-03T13:41:44.278Z,24.70
2022-09-03T13:44:56.174Z,24.70
2022-09-03T13:48:37.596Z,24.80
2022-09-03T13:51:54.133Z,24.90
2022-09-03T13:55:02.980Z,24.90
2022-09-03T13:58:04.713Z,25.00
2022-09-03T14:01:21.985Z,25.00
2022-09-03T14:04:44.879Z,25.00
2022-09-03T14:07:58.814Z,25.00
2022-09-03T14:11:21.721Z,25.10
2022-09-03T14:14:45.830Z,25.00
2022-09-03T14:18:10.621Z,25.10
2022-09-03T14:21:24.770Z,25.10
2022-09-03T14:24:44.485Z,25.00
2022-09-03T14:27:46.425Z,24.90
2022-09-03T14:31:00.672Z,25.00
2022-09-03T14:34:26.992Z,24.90
2022-09-03T14:38:09.768Z,24.90
2022-09-03T14:41:14.415Z,24.90
2022-09-03T14:44:39.280Z,25.00
2022-09-03T14:47:55.809Z,25.00
2022-09-03T14:51:34.687Z,25.10
2022-09-03T14:54:58.258Z,25.10
2022-09-03T14:58:24.114Z,25.20
2022-09-03T15:01:32.808Z,25.10
2022-09-03T15:04:59.411Z,25.10
2022-09-03T15:08:39.059Z,25.20
2022-09-03T15:11:54.352Z,25.20
2022-09-03T15:15:05.326Z,25.10
2022-09-03T15:18:41.042Z,25.10
2022-09-03T15:22:21.276Z,25.10
2022-09-03T15:25:38.584Z,25.00
2022-09-03T15:28:58.643Z,25.00
2022-09-03T15:32:05.046Z,25.00
2022-09-03T15:35:40.228Z,24.90
2022-09-03T15:38:57.142Z,24.90
2022-09-03T15:42:01.792Z,24.90
2022-09-03T15:45:16.497Z,24.80
2022-09-03T15:48:25.547Z,24.80
2022-09-03T15:51:31.792Z,24.70
2022-09-03T15:54:48.230Z,24.70
2022-09-03T15:58:20.823Z,24.70
2022-09-03T16:01:58.947Z,24.70
2022-09-03T16:05:13.871Z,24.70
2022-09-03T16:08:39.984Z,24.70
2022-09-03T16:11:56.471Z,24.70
2022-09-03T16:15:27.615Z,24.80
2022-09-03T16:18:40.704Z,24.80
2022-09-03T16:21:50.090Z,24.90
2022-09-03T16:25:17.921Z,24.90
2022-09-03T16:28:28.963Z,24.90
2022-09-03T16:31:42.423Z,25.00
2022-09-03T16:35:16.443Z,25.00
2022-09-03T16:38:26.664Z,25.00
2022-09-03T16:41:36.286Z,25.00
2022-09-03T16:44:45.883Z,24.90
2022-09-03T16:48:06.570Z,24.90
2022-09-03T16:51:26.597Z,24.80
2022-09-03T16:55:11.397Z,24.80
2022-09-03T16:58:22.153Z,24.80
2022-09-03T17:01:36.305Z,24.70
2022-09-03T17:04:47.223Z,24.70
2022-09-03T17:08:12.128Z,24.70
2022-09-03T17:11:34.813Z,24.70
2022-09-03T17:14:45.724Z,24.70
2022-09-03T17:18:03.588Z,24.70
2022-09-03T17:21:50.356Z,24.70
2022-09-03T17:25:03.653Z,24.60
2022-09-03T17:28:10.682Z,24.60
2022-09-03T17:31:41.637Z,24.50
2022-09-03T17:34:43.423Z,24.50
2022-09-03T17:37:57.223Z,24.40
2022-09-03T17:41:22.733Z,24.40
2022-09-03T17:44:41.149Z,24.30
2022-09-03T17:48:06.104Z,24.30
2022-09-03T17:51:31.776Z,24.30
2022-09-03T17:54:40.189Z,24.30
2022-09-03T17:57:50.429Z,24.20
2022-09-03T18:00:58.091Z,24.20
2022-09-03T18:04:28.600Z,24.20
2022-09-03T18:08:00.268Z,24.10
2022-09-03T18:11:41.925Z,24.10
2022-09-03T18:15:02.163Z,24.10
2022-09-03T18:18:27.885Z,24.00
2022-09-03T18:21:54.593Z,23.90
2022-09-03T18:25:18.243Z,23.90
2022-09-03T18:28:48.151Z,23.80
2022-09-03T18:32:08.540Z,23.80
2022-09-03T18:35:29.845Z,23.70
2022-09-03T18:38:53.040Z,23.70
2022-09-03T18:42:39.210Z,23.70
2022-09-03T18:46:46.230Z,23.60
2022-09-03T18:49:53.706Z,23.60
2022-09-03T18:53:40.457Z,23.40
2022-09-03T18:57:08.226Z,23.40
2022-09-03T19:00:32.135Z,23.30
2022-09-03T19:04:16.745Z,23.30
2022-09-03T19:07:45.126Z,23.20
2022-09-03T19:11:18.221Z,23.20
2022-09-03T19:14:52.431Z,23.20
2022-09-03T19:18:39.952Z,23.20
2022-09-03T19:22:09.483Z,23.20
2022-09-03T19:25:33.275Z,23.10
2022-09-03T19:28:58.042Z,23.20
2022-09-03T19:32:28.576Z,23.10
2022-09-03T19:36:05.190Z,23.10
2022-09-03T19:39:48.966Z,23.10
2022-09-03T19:43:24.503Z,23.00
2022-09-03T19:47:13.788Z,23.00
2022-09-03T19:50:42.951Z,22.90
2022-09-03T19:54:16.266Z,22.80
2022-09-03T19:57:39.750Z,22.60
2022-09-03T20:01:01.635Z,22.60
2022-09-03T20:04:53.323Z,22.60
2022-09-03T20:08:14.958Z,22.50
2022-09-03T20:11:22.933Z,22.50
2022-09-03T20:14:26.014Z,22.50
2022-09-03T20:18:02.787Z,22.50
2022-09-03T20:21:21.610Z,22.50
2022-09-03T20:27:53.094Z,22.50
2022-09-03T20:31:01.091Z,22.50
2022-09-03T20:34:17.908Z,22.40
2022-09-03T20:37:41.859Z,22.30
2022-09-03T20:40:51.049Z,22.30
2022-09-03T20:44:25.623Z,22.30
2022-09-03T20:47:45.082Z,22.20
2022-09-03T20:51:10.161Z,22.20
2022-09-03T20:54:21.468Z,22.20
2022-09-03T20:57:29.183Z,22.20
2022-09-03T21:00:50.143Z,22.20
2022-09-03T21:04:10.686Z,22.10
2022-09-03T21:07:47.462Z,22.10
2022-09-03T21:11:09.448Z,22.10
2022-09-03T21:14:38.918Z,22.00
2022-09-03T21:17:44.158Z,21.90
2022-09-03T21:21:01.205Z,21.90
2022-09-03T21:24:14.421Z,22.00
2022-09-03T21:27:27.630Z,22.00
2022-09-03T21:30:31.566Z,21.90
2022-09-03T21:33:38.144Z,21.80
2022-09-03T21:36:43.311Z,21.70
2022-09-03T21:39:55.995Z,21.70
2022-09-03T21:43:21.454Z,21.80
2022-09-03T21:46:31.153Z,21.80
2022-09-03T21:49:39.974Z,21.60
2022-09-03T21:53:26.474Z,21.50
2022-09-03T21:56:42.536Z,21.40
2022-09-03T22:00:32.667Z,21.30
2022-09-03T22:03:34.552Z,21.30
2022-09-03T22:06:46.796Z,21.30
2022-09-03T22:10:08.964Z,21.30
2022-09-03T22:13:45.185Z,21.30
2022-09-03T22:17:10.773Z,21.20
2022-09-03T22:20:15.468Z,21.20
2022-09-03T22:23:42.560Z,21.00
2022-09-03T22:27:06.224Z,21.00
2022-09-03T22:30:13.254Z,21.10
2022-09-03T22:33:29.711Z,21.00
2022-09-03T22:36:46.075Z,21.10
2022-09-03T22:39:48.097Z,21.00
2022-09-03T22:43:19.078Z,20.90
2022-09-03T22:46:22.737Z,20.90
2022-09-03T22:49:30.419Z,21.10
2022-09-03T22:52:42.112Z,21.10
2022-09-03T22:56:11.181Z,20.70
2022-09-03T22:59:43.241Z,20.60
2022-09-03T23:02:50.139Z,20.40
2022-09-03T23:06:03.372Z,20.40
2022-09-03T23:09:19.669Z,20.40
2022-09-03T23:12:37.177Z,20.30
2022-09-03T23:15:41.674Z,20.30
2022-09-03T23:18:46.970Z,20.30
2022-09-03T23:22:00.538Z,20.30
2022-09-03T23:25:06.481Z,20.30
2022-09-03T23:28:20.171Z,20.20
2022-09-03T23:31:24.342Z,20.20
2022-09-03T23:34:27.011Z,20.10
2022-09-03T23:37:47.887Z,20.00
2022-09-03T23:40:51.984Z,19.80
2022-09-03T23:44:11.451Z,19.60
2022-09-03T23:47:42.332Z,19.70
2022-09-03T23:51:17.408Z,19.90
2022-09-03T23:54:39.542Z,19.90
2022-09-03T23:58:00.742Z,19.90
